Time;durP1;ratioP1;P1;durP2;ratioP2;P2;SDS_P1;SDS_P2;PMS_P1;PMS_P2;Temp;Humidity;BMP_temperature;BMP_pressure;BME280_temperature;BME280_humidity;BME280_pressure;Samples;Min_cycle;Max_cycle;Signal;HPM_P1;HPM_P2
2022/06/11 00:01:33;;;;;;;8.85;2.75;;;16.80;99.90;;;;;;4975059;28;20578;-55
2022/06/11 00:04:19;;;;;;;8.95;2.63;;;16.80;99.90;;;;;;4983002;28;20489;-56
2022/06/11 00:06:49;;;;;;;10.82;2.90;;;16.70;99.90;;;;;;4986573;28;20073;-55
2022/06/11 00:09:16;;;;;;;11.98;2.88;;;16.70;99.90;;;;;;4984789;28;20532;-55
2022/06/11 00:11:43;;;;;;;9.80;2.67;;;16.70;99.90;;;;;;5003113;28;20045;-56
2022/06/11 00:14:10;;;;;;;11.05;3.50;;;16.70;99.90;;;;;;4987533;28;20034;-57
2022/06/11 00:16:36;;;;;;;9.70;3.15;;;16.70;99.90;;;;;;4978834;28;20049;-56
2022/06/11 00:19:03;;;;;;;8.52;2.50;;;16.60;99.90;;;;;;4985418;28;20023;-55
2022/06/11 00:21:32;;;;;;;7.40;2.53;;;16.60;99.90;;;;;;4988289;28;20046;-55
2022/06/11 00:23:58;;;;;;;14.52;2.97;;;16.60;99.90;;;;;;4985471;28;20050;-56
2022/06/11 00:26:24;;;;;;;11.43;3.30;;;16.60;99.90;;;;;;4977673;28;20082;-55
2022/06/11 00:28:50;;;;;;;13.02;3.05;;;16.50;99.90;;;;;;4975074;28;20078;-56
2022/06/11 00:31:16;;;;;;;9.85;2.63;;;16.50;99.90;;;;;;4999154;28;20104;-56
2022/06/11 00:33:43;;;;;;;9.55;3.10;;;16.50;99.90;;;;;;4970793;28;20046;-56
2022/06/11 00:36:09;;;;;;;12.02;2.75;;;16.50;99.90;;;;;;4970356;28;20042;-55
2022/06/11 00:38:37;;;;;;;10.77;3.17;;;16.40;99.90;;;;;;4978308;28;20039;-55
2022/06/11 00:41:03;;;;;;;10.15;2.85;;;16.40;99.90;;;;;;4984231;28;20493;-54
2022/06/11 00:43:29;;;;;;;7.57;2.92;;;16.30;99.90;;;;;;4981148;28;20051;-57
2022/06/11 00:46:19;;;;;;;10.88;3.20;;;16.30;99.90;;;;;;4975376;28;20388;-57
2022/06/11 00:48:45;;;;;;;13.02;3.53;;;16.20;99.90;;;;;;4987536;28;20042;-56
2022/06/11 00:51:19;;;;;;;7.30;3.38;;;16.10;99.90;;;;;;4986729;28;20096;-57
2022/06/11 00:54:04;;;;;;;11.77;3.13;;;16.10;99.90;;;;;;4988685;28;20038;-57
2022/06/11 00:56:45;;;;;;;12.48;3.05;;;16.00;99.90;;;;;;4978720;28;20074;-58
2022/06/11 00:59:17;;;;;;;11.82;3.47;;;16.00;99.90;;;;;;4984606;28;20616;-57
2022/06/11 01:01:44;;;;;;;14.50;3.17;;;16.00;99.90;;;;;;4979609;28;21007;-55
2022/06/11 01:04:33;;;;;;;12.80;4.03;;;15.90;99.90;;;;;;4978930;28;20089;-59
2022/06/11 01:07:09;;;;;;;9.38;2.78;;;15.80;99.90;;;;;;4982013;28;20046;-58
2022/06/11 01:09:44;;;;;;;9.23;2.63;;;15.70;99.90;;;;;;4987054;28;20046;-56
2022/06/11 01:12:35;;;;;;;11.32;3.35;;;15.70;99.90;;;;;;4984419;28;20065;-53
2022/06/11 01:15:17;;;;;;;12.20;3.40;;;15.70;99.90;;;;;;4968172;28;20042;-53
2022/06/11 01:17:46;;;;;;;9.77;3.28;;;15.60;99.90;;;;;;4977028;28;20050;-57
2022/06/11 01:20:17;;;;;;;15.35;4.82;;;15.60;99.90;;;;;;4987493;28;20065;-55
2022/06/11 01:23:06;;;;;;;9.20;2.58;;;15.60;99.90;;;;;;4985534;28;20050;-54
2022/06/11 01:25:53;;;;;;;14.85;3.33;;;15.50;99.90;;;;;;4974364;28;20042;-56
2022/06/11 01:29:00;;;;;;;10.88;2.67;;;15.40;99.90;;;;;;4956319;28;20109;-56
2022/06/11 01:31:35;;;;;;;11.57;3.22;;;15.40;99.90;;;;;;4955026;28;20456;-58
2022/06/11 01:34:26;;;;;;;11.07;2.90;;;15.30;99.90;;;;;;5001233;28;20065;-57
2022/06/11 01:37:00;;;;;;;11.55;2.90;;;15.30;99.90;;;;;;4963980;28;20050;-58
2022/06/11 01:40:25;;;;;;;16.38;3.50;;;15.20;99.90;;;;;;4979167;28;20122;-57
2022/06/11 01:42:58;;;;;;;12.68;3.53;;;15.20;99.90;;;;;;4893522;29;20088;-56
2022/06/11 01:45:35;;;;;;;12.23;3.28;;;15.20;99.90;;;;;;4907251;29;20040;-58
2022/06/11 01:48:03;;;;;;;14.32;3.05;;;15.20;99.90;;;;;;4959819;28;20054;-58
2022/06/11 01:50:34;;;;;;;15.05;4.32;;;15.20;99.90;;;;;;4976949;28;20081;-58
2022/06/11 01:53:24;;;;;;;13.18;3.55;;;15.20;99.90;;;;;;4965535;28;20045;-56
2022/06/11 01:55:59;;;;;;;14.57;2.90;;;15.20;99.90;;;;;;4978937;28;20052;-56
2022/06/11 01:59:03;;;;;;;12.85;3.05;;;15.10;99.90;;;;;;4978282;28;20038;-58
2022/06/11 02:02:11;;;;;;;11.82;2.80;;;15.20;99.90;;;;;;4977136;28;20146;-58
2022/06/11 02:05:01;;;;;;;10.20;3.42;;;15.10;99.90;;;;;;4964819;28;20536;-55
2022/06/11 02:07:36;;;;;;;8.55;2.80;;;15.10;99.90;;;;;;4981810;28;20046;-57
2022/06/11 02:10:09;;;;;;;12.57;3.75;;;15.00;99.90;;;;;;4969110;28;20101;-56
2022/06/11 02:12:35;;;;;;;14.02;3.13;;;14.90;99.90;;;;;;4975565;28;20100;-54
2022/06/11 02:15:16;;;;;;;9.10;3.30;;;15.00;99.90;;;;;;4982849;28;20054;-57
2022/06/11 02:17:45;;;;;;;10.10;3.22;;;14.90;99.90;;;;;;4982810;28;20038;-57
2022/06/11 02:20:16;;;;;;;13.57;3.15;;;14.90;99.90;;;;;;4969892;28;20117;-55
2022/06/11 02:22:47;;;;;;;10.05;3.75;;;14.90;99.90;;;;;;4965586;28;20095;-57
2022/06/11 02:25:30;;;;;;;17.88;4.35;;;14.90;99.90;;;;;;4950763;28;20391;-56
2022/06/11 02:28:02;;;;;;;10.68;3.60;;;14.90;99.90;;;;;;4978884;28;20226;-57
2022/06/11 02:30:30;;;;;;;15.38;3.53;;;15.00;99.90;;;;;;4950322;28;20055;-56
2022/06/11 02:32:57;;;;;;;12.65;3.75;;;15.00;99.90;;;;;;4977476;28;20053;-56
2022/06/11 02:35:35;;;;;;;13.18;3.00;;;15.00;99.90;;;;;;4977681;28;20061;-56
2022/06/11 02:38:00;;;;;;;17.55;2.97;;;15.00;99.90;;;;;;4974398;28;20101;-57
2022/06/11 02:40:42;;;;;;;12.50;3.42;;;15.00;99.90;;;;;;4966071;28;20656;-56
2022/06/11 02:43:08;;;;;;;15.05;3.40;;;15.00;99.90;;;;;;4969357;28;20048;-55
2022/06/11 02:45:33;;;;;;;11.95;3.65;;;15.00;99.90;;;;;;4965208;28;20035;-55
2022/06/11 02:47:59;;;;;;;14.10;3.95;;;15.00;99.90;;;;;;4976798;28;20434;-55
2022/06/11 02:50:29;;;;;;;11.52;3.00;;;15.00;99.90;;;;;;4969050;28;20065;-57
2022/06/11 02:52:56;;;;;;;11.18;3.53;;;15.00;99.90;;;;;;4974601;28;20382;-58
2022/06/11 02:55:23;;;;;;;17.08;3.38;;;15.00;99.90;;;;;;4975277;28;20042;-53
2022/06/11 02:57:49;;;;;;;15.35;3.65;;;15.00;99.90;;;;;;4976637;28;20405;-57
2022/06/11 03:00:22;;;;;;;13.35;3.67;;;15.00;99.90;;;;;;4964624;28;20053;-56
2022/06/11 03:02:48;;;;;;;16.50;3.88;;;15.00;99.90;;;;;;4975069;28;20045;-56
2022/06/11 03:05:21;;;;;;;11.55;3.08;;;15.00;99.90;;;;;;4980649;28;20076;-57
2022/06/11 03:07:48;;;;;;;15.80;3.80;;;15.10;99.90;;;;;;4983942;28;20394;-56
2022/06/11 03:10:17;;;;;;;13.05;3.78;;;15.10;99.90;;;;;;4964915;28;20049;-57
2022/06/11 03:12:43;;;;;;;17.00;4.15;;;15.00;99.90;;;;;;4974183;28;20053;-56
2022/06/11 03:15:11;;;;;;;22.95;4.38;;;15.10;99.90;;;;;;4982776;28;20038;-57
2022/06/11 03:17:37;;;;;;;19.05;4.07;;;15.10;99.90;;;;;;4944233;28;20142;-57
2022/06/11 03:20:05;;;;;;;14.88;3.30;;;15.10;99.90;;;;;;4978117;28;20378;-57
2022/06/11 03:22:31;;;;;;;19.35;4.00;;;15.10;99.90;;;;;;4959239;28;20045;-57
2022/06/11 03:24:57;;;;;;;13.68;3.28;;;15.10;99.90;;;;;;4980288;28;20047;-57
2022/06/11 03:27:23;;;;;;;12.63;3.78;;;15.10;99.90;;;;;;4963967;28;20039;-57
2022/06/11 03:29:49;;;;;;;14.23;3.80;;;15.10;99.90;;;;;;4979248;28;20640;-57
2022/06/11 03:32:14;;;;;;;14.18;3.55;;;15.10;99.90;;;;;;4968598;28;20042;-57
2022/06/11 03:34:40;;;;;;;15.00;4.22;;;15.10;99.90;;;;;;4983890;28;20126;-57
2022/06/11 03:37:06;;;;;;;13.60;3.80;;;15.10;99.90;;;;;;4966783;28;20046;-57
2022/06/11 03:39:32;;;;;;;16.80;3.70;;;15.10;99.90;;;;;;4979926;28;20066;-57
2022/06/11 03:41:59;;;;;;;21.38;4.32;;;15.10;99.90;;;;;;4976616;28;20053;-56
2022/06/11 03:44:24;;;;;;;13.90;3.42;;;15.10;99.90;;;;;;4978371;28;20034;-56
2022/06/11 03:46:50;;;;;;;15.75;4.68;;;15.10;99.90;;;;;;4944517;28;20749;-57
2022/06/11 03:49:17;;;;;;;13.75;4.15;;;15.20;99.90;;;;;;4964205;28;20105;-57
2022/06/11 03:51:43;;;;;;;13.00;3.65;;;15.20;99.90;;;;;;4978180;28;20038;-57
2022/06/11 03:54:10;;;;;;;13.70;3.15;;;15.10;99.90;;;;;;4977853;28;20568;-57
2022/06/11 03:56:37;;;;;;;18.67;4.38;;;15.10;99.90;;;;;;4977301;28;20078;-57
2022/06/11 03:59:03;;;;;;;14.65;3.95;;;15.10;99.90;;;;;;4974583;28;20038;-55
2022/06/11 04:01:29;;;;;;;16.95;4.63;;;15.10;99.90;;;;;;4979396;28;20046;-57
2022/06/11 04:04:00;;;;;;;20.33;5.13;;;15.20;99.90;;;;;;4980038;28;20049;-56
2022/06/11 04:06:56;;;;;;;21.63;4.85;;;15.20;99.90;;;;;;4957162;28;20117;-58
2022/06/11 04:09:34;;;;;;;19.30;4.90;;;15.20;99.90;;;;;;4973877;28;20146;-57
2022/06/11 04:12:03;;;;;;;20.15;5.00;;;15.20;99.90;;;;;;4978166;28;20043;-57
2022/06/11 04:14:28;;;;;;;19.80;4.70;;;15.20;99.90;;;;;;4978451;28;20050;-57
2022/06/11 04:16:58;;;;;;;15.30;5.70;;;15.20;99.90;;;;;;4962602;28;20502;-56
2022/06/11 04:19:28;;;;;;;14.43;4.07;;;15.30;99.90;;;;;;4976286;28;20081;-57
2022/06/11 04:21:56;;;;;;;16.88;4.03;;;15.30;99.90;;;;;;4977640;28;20488;-56
2022/06/11 04:24:23;;;;;;;19.20;4.53;;;15.30;99.90;;;;;;4961638;28;20498;-56
2022/06/11 04:26:52;;;;;;;21.73;4.75;;;15.20;99.90;;;;;;4979436;28;20043;-57
2022/06/11 04:29:21;;;;;;;26.10;6.13;;;15.30;99.90;;;;;;4962875;28;20054;-57
2022/06/11 04:31:49;;;;;;;19.70;5.35;;;15.30;99.90;;;;;;4960207;28;20497;-58
2022/06/11 04:34:16;;;;;;;20.27;5.47;;;15.30;99.90;;;;;;4959705;28;20104;-57
2022/06/11 04:36:44;;;;;;;20.25;6.70;;;15.30;99.90;;;;;;4944682;28;20505;-58
2022/06/11 04:39:11;;;;;;;24.27;5.90;;;15.30;99.90;;;;;;4951986;28;20043;-56
2022/06/11 04:41:37;;;;;;;16.13;4.47;;;15.30;99.90;;;;;;4965595;28;20062;-56
2022/06/11 04:44:04;;;;;;;18.40;4.50;;;15.40;99.90;;;;;;4970789;28;20350;-56
2022/06/11 04:46:30;;;;;;;20.40;4.82;;;15.40;99.90;;;;;;4967057;28;20053;-57
2022/06/11 04:48:56;;;;;;;22.88;5.88;;;15.40;99.90;;;;;;4962625;28;20529;-57
2022/06/11 04:51:23;;;;;;;17.85;5.07;;;15.40;99.90;;;;;;4954347;28;20261;-56
2022/06/11 04:53:48;;;;;;;19.00;4.85;;;15.40;99.90;;;;;;4993019;23;20525;-59
2022/06/11 04:56:19;;;;;;;18.60;4.93;;;15.50;99.90;;;;;;5001583;28;20204;-53
2022/06/11 04:58:48;;;;;;;17.85;4.63;;;15.50;99.90;;;;;;5021333;28;20113;-58
2022/06/11 05:01:14;;;;;;;25.08;5.82;;;15.50;99.90;;;;;;5022045;28;20057;-58
2022/06/11 05:03:40;;;;;;;22.95;5.40;;;15.50;99.90;;;;;;5020308;28;20131;-56
2022/06/11 05:06:06;;;;;;;20.10;5.80;;;15.60;99.90;;;;;;5026086;28;20533;-55
2022/06/11 05:08:32;;;;;;;17.67;5.03;;;15.60;99.90;;;;;;5020943;28;20094;-58
2022/06/11 05:11:01;;;;;;;20.08;5.57;;;15.60;99.90;;;;;;5020546;28;20046;-60
2022/06/11 05:13:26;;;;;;;27.42;6.38;;;15.70;99.90;;;;;;5009125;28;20199;-56
2022/06/11 05:15:57;;;;;;;23.95;5.85;;;15.80;99.90;;;;;;5021860;28;20353;-59
2022/06/11 05:18:23;;;;;;;21.20;5.97;;;15.80;99.90;;;;;;5021845;28;20503;-57
2022/06/11 05:20:49;;;;;;;21.58;5.20;;;15.90;99.90;;;;;;5020939;28;20114;-59
2022/06/11 05:23:15;;;;;;;23.92;5.90;;;15.90;99.90;;;;;;5024566;28;20128;-57
2022/06/11 05:25:43;;;;;;;25.63;6.07;;;16.00;99.90;;;;;;5022554;28;20057;-58
2022/06/11 05:28:17;;;;;;;23.30;5.28;;;16.00;99.90;;;;;;5009216;28;20081;-58
2022/06/11 05:30:42;;;;;;;24.02;6.25;;;16.10;99.90;;;;;;5019872;28;20056;-61
2022/06/11 05:33:09;;;;;;;30.85;6.30;;;16.10;99.90;;;;;;5011594;28;20496;-60
2022/06/11 05:35:35;;;;;;;25.20;7.38;;;16.20;99.90;;;;;;5023966;28;20107;-58
2022/06/11 05:38:05;;;;;;;21.65;6.25;;;16.20;99.90;;;;;;5024895;28;20044;-63
2022/06/11 05:40:35;;;;;;;30.75;7.03;;;16.20;99.90;;;;;;5021645;28;20042;-62
2022/06/11 05:43:01;;;;;;;32.65;7.63;;;16.30;99.90;;;;;;5021358;28;20488;-59
2022/06/11 05:45:48;;;;;;;28.55;6.90;;;16.30;99.90;;;;;;4992682;28;20048;-59
2022/06/11 05:48:16;;;;;;;26.40;7.00;;;16.30;99.90;;;;;;5023317;28;20103;-60
2022/06/11 05:50:46;;;;;;;27.75;6.63;;;16.40;99.90;;;;;;5011336;28;20560;-59
2022/06/11 05:53:14;;;;;;;24.70;5.95;;;16.40;99.90;;;;;;5008069;28;20056;-57
2022/06/11 05:55:41;;;;;;;35.35;6.65;;;16.50;99.90;;;;;;5011397;28;20154;-56
2022/06/11 05:58:22;;;;;;;30.90;7.30;;;16.60;99.90;;;;;;5020437;28;20228;-56
2022/06/11 06:00:48;;;;;;;24.73;7.15;;;16.50;99.90;;;;;;5006898;28;20285;-58
2022/06/11 06:03:14;;;;;;;33.30;6.80;;;16.70;99.90;;;;;;5008471;28;20298;-57
2022/06/11 06:05:40;;;;;;;36.25;7.50;;;16.80;99.90;;;;;;5021179;28;20542;-59
2022/06/11 06:08:09;;;;;;;31.10;6.32;;;16.90;99.90;;;;;;5025750;28;20103;-60
2022/06/11 06:10:35;;;;;;;29.88;7.75;;;16.80;99.90;;;;;;5007961;28;20492;-56
2022/06/11 06:13:45;;;;;;;31.08;8.77;;;16.90;99.90;;;;;;5020247;28;20099;-60
2022/06/11 06:15:50;;;;;;;29.05;6.85;;;16.90;99.90;;;;;;5015332;28;20096;-57
2022/06/11 06:18:15;;;;;;;29.10;6.95;;;17.00;99.90;;;;;;5014530;28;20480;-59
2022/06/11 06:20:41;;;;;;;26.17;6.70;;;17.00;99.90;;;;;;4997607;28;20064;-58
2022/06/11 06:23:07;;;;;;;29.50;7.57;;;17.10;99.90;;;;;;5000916;28;20114;-60
2022/06/11 06:25:32;;;;;;;27.80;6.45;;;17.20;99.90;;;;;;5027066;28;20058;-60
2022/06/11 06:27:58;;;;;;;26.30;6.30;;;17.30;99.90;;;;;;5015147;28;20508;-58
2022/06/11 06:30:24;;;;;;;27.08;7.15;;;17.30;99.90;;;;;;5018603;28;20057;-55
2022/06/11 06:32:49;;;;;;;23.00;5.43;;;17.30;99.90;;;;;;5021944;28;20048;-60
2022/06/11 06:35:15;;;;;;;25.25;6.57;;;17.50;99.90;;;;;;5004542;28;20057;-60
2022/06/11 06:37:41;;;;;;;24.63;6.60;;;17.60;99.90;;;;;;5020115;28;20433;-62
2022/06/11 06:40:08;;;;;;;28.85;6.72;;;17.60;99.90;;;;;;5006799;28;20513;-60
2022/06/11 06:42:34;;;;;;;24.63;6.10;;;17.60;99.90;;;;;;5015788;28;20034;-57
2022/06/11 06:45:00;;;;;;;24.33;5.97;;;17.60;99.90;;;;;;5010925;28;20499;-60
2022/06/11 06:47:26;;;;;;;19.80;5.13;;;17.60;99.90;;;;;;5021299;28;20057;-61
2022/06/11 06:49:51;;;;;;;27.73;5.80;;;17.60;99.90;;;;;;4998177;28;20042;-58
2022/06/11 06:52:17;;;;;;;23.13;5.15;;;17.70;99.90;;;;;;5019678;28;20038;-60
2022/06/11 06:54:43;;;;;;;30.00;7.57;;;17.80;99.90;;;;;;5003492;28;20119;-60
2022/06/11 06:57:09;;;;;;;20.58;5.70;;;17.80;99.90;;;;;;5012604;28;20103;-57
2022/06/11 06:59:34;;;;;;;25.17;5.50;;;17.80;99.90;;;;;;5017562;28;20046;-58
2022/06/11 07:02:00;;;;;;;20.27;5.15;;;17.90;99.90;;;;;;5024067;28;20053;-60
2022/06/11 07:04:26;;;;;;;20.67;5.55;;;18.00;99.90;;;;;;4994735;28;20056;-58
2022/06/11 07:06:51;;;;;;;20.42;5.63;;;18.00;99.90;;;;;;5018471;28;20037;-60
2022/06/11 07:09:17;;;;;;;24.70;5.22;;;18.10;99.90;;;;;;5017822;28;20049;-61
2022/06/11 07:11:43;;;;;;;19.20;4.63;;;18.20;99.90;;;;;;5018697;28;20058;-61
2022/06/11 07:14:09;;;;;;;19.83;4.80;;;18.20;99.90;;;;;;5013728;28;20084;-55
2022/06/11 07:16:41;;;;;;;21.80;6.45;;;18.20;99.90;;;;;;5018626;28;20037;-58
2022/06/11 07:19:24;;;;;;;21.23;5.47;;;18.20;99.90;;;;;;5020652;28;20048;-57
2022/06/11 07:21:54;;;;;;;16.88;4.30;;;18.20;99.90;;;;;;5019062;28;20392;-59
2022/06/11 07:24:25;;;;;;;23.60;6.25;;;18.40;99.90;;;;;;5021371;28;20041;-56
2022/06/11 07:26:54;;;;;;;23.02;5.30;;;18.50;99.90;;;;;;5017231;28;20405;-55
2022/06/11 07:29:27;;;;;;;17.15;5.00;;;18.30;99.90;;;;;;5020924;28;20151;-56
2022/06/11 07:31:58;;;;;;;20.35;4.80;;;18.30;99.90;;;;;;5015290;28;20120;-62
2022/06/11 07:34:24;;;;;;;17.27;4.30;;;18.20;99.90;;;;;;5009946;28;20056;-56
2022/06/11 07:36:50;;;;;;;21.48;4.68;;;18.20;99.90;;;;;;5020051;28;20033;-56
2022/06/11 07:39:16;;;;;;;18.45;4.32;;;18.20;99.90;;;;;;5024540;28;20037;-57
2022/06/11 07:41:42;;;;;;;16.65;4.15;;;18.20;99.90;;;;;;5021961;28;20041;-57
2022/06/11 07:44:09;;;;;;;20.55;5.35;;;18.30;99.90;;;;;;5018375;28;20075;-58
2022/06/11 07:46:35;;;;;;;22.17;4.57;;;18.40;99.90;;;;;;5007482;28;20034;-63
2022/06/11 07:49:01;;;;;;;17.65;4.78;;;18.50;99.90;;;;;;5024585;28;20412;-56
2022/06/11 07:51:26;;;;;;;17.60;4.90;;;18.50;99.90;;;;;;5023291;28;20136;-58
2022/06/11 07:53:52;;;;;;;17.83;4.63;;;18.60;99.90;;;;;;5028243;28;20066;-55
2022/06/11 07:56:21;;;;;;;18.75;4.57;;;18.80;99.90;;;;;;5014567;28;20049;-60
2022/06/11 07:58:49;;;;;;;19.15;4.45;;;18.90;99.90;;;;;;4995295;28;20081;-56
2022/06/11 08:01:15;;;;;;;20.35;4.53;;;18.70;99.90;;;;;;5014402;28;20041;-63
2022/06/11 08:03:41;;;;;;;17.50;4.32;;;18.70;99.90;;;;;;5019392;28;20041;-57
2022/06/11 08:06:08;;;;;;;20.75;4.38;;;18.80;99.90;;;;;;5016934;28;20619;-60
2022/06/11 08:08:34;;;;;;;19.20;4.50;;;18.80;99.90;;;;;;5018833;28;20053;-60
2022/06/11 08:11:01;;;;;;;17.35;4.78;;;19.00;99.90;;;;;;5017701;28;20419;-57
2022/06/11 08:13:28;;;;;;;19.42;4.63;;;19.10;99.90;;;;;;5015513;28;20496;-63
2022/06/11 08:15:54;;;;;;;16.33;4.35;;;19.10;99.90;;;;;;5015631;28;20117;-64
2022/06/11 08:18:21;;;;;;;20.35;4.63;;;19.20;99.90;;;;;;5011889;28;20179;-59
2022/06/11 08:20:49;;;;;;;16.65;4.97;;;19.20;99.90;;;;;;5011330;28;20049;-57
2022/06/11 08:23:16;;;;;;;16.23;3.70;;;19.20;99.90;;;;;;5019974;28;20049;-58
2022/06/11 08:25:41;;;;;;;15.75;4.57;;;19.30;99.90;;;;;;5008527;28;20052;-56
2022/06/11 08:28:10;;;;;;;16.40;3.80;;;19.40;99.90;;;;;;5019050;28;20509;-64
2022/06/11 08:30:36;;;;;;;17.25;3.47;;;19.20;99.90;;;;;;5001100;28;20191;-60
2022/06/11 08:33:02;;;;;;;15.13;3.58;;;19.10;99.90;;;;;;5018072;28;20120;-56
2022/06/11 08:35:30;;;;;;;13.27;4.90;;;19.10;99.90;;;;;;5025528;28;20049;-55
2022/06/11 08:37:56;;;;;;;18.85;5.47;;;19.10;99.90;;;;;;5009141;28;20048;-58
2022/06/11 08:40:55;;;;;;;11.57;3.22;;;19.30;99.90;;;;;;5017655;28;20046;-59
2022/06/11 08:43:32;;;;;;;13.65;3.47;;;19.50;99.90;;;;;;5011879;28;20088;-58
2022/06/11 08:46:02;;;;;;;19.83;4.25;;;19.80;99.90;;;;;;5021105;28;20047;-57
2022/06/11 08:48:43;;;;;;;14.82;3.70;;;19.90;99.90;;;;;;5010547;28;20148;-64
2022/06/11 08:51:33;;;;;;;25.13;4.25;;;19.80;99.90;;;;;;5024313;28;20037;-58
2022/06/11 08:54:04;;;;;;;14.48;3.88;;;19.80;99.90;;;;;;5027985;28;20038;-62
2022/06/11 08:56:48;;;;;;;13.63;4.10;;;19.90;99.90;;;;;;5016080;28;20500;-61
2022/06/11 08:59:29;;;;;;;15.30;3.92;;;20.00;99.90;;;;;;5020450;28;20056;-59
2022/06/11 09:02:13;;;;;;;14.35;3.72;;;20.20;99.90;;;;;;5026809;28;20049;-64
2022/06/11 09:04:57;;;;;;;15.25;4.18;;;20.20;99.20;;;;;;5024656;28;20046;-58
2022/06/11 09:07:23;;;;;;;15.93;3.35;;;20.20;98.80;;;;;;5028097;28;20452;-60
2022/06/11 09:10:02;;;;;;;18.38;3.85;;;20.10;98.00;;;;;;5022901;28;20041;-61
2022/06/11 09:12:50;;;;;;;16.17;3.42;;;20.10;99.00;;;;;;5029305;28;20050;-57
2022/06/11 09:15:27;;;;;;;15.60;3.35;;;20.10;98.30;;;;;;5020710;28;20108;-59
2022/06/11 09:18:10;;;;;;;13.95;3.20;;;20.30;99.10;;;;;;5026368;28;20041;-59
2022/06/11 09:21:01;;;;;;;15.55;3.15;;;20.20;97.50;;;;;;5022273;28;20488;-56
2022/06/11 09:24:02;;;;;;;14.45;3.42;;;20.20;96.70;;;;;;5000670;28;20080;-59
2022/06/11 09:26:49;;;;;;;14.65;3.50;;;19.90;97.20;;;;;;5027119;28;20041;-57
2022/06/11 09:29:59;;;;;;;13.48;3.55;;;20.00;97.50;;;;;;5021358;28;20409;-58
2022/06/11 09:32:29;;;;;;;18.10;3.80;;;20.30;98.00;;;;;;5006153;28;20061;-63
2022/06/11 09:35:04;;;;;;;10.10;2.80;;;20.50;98.00;;;;;;5012611;28;20034;-58
2022/06/11 09:37:36;;;;;;;12.07;3.10;;;20.50;96.50;;;;;;5027651;28;20046;-59
2022/06/11 09:40:16;;;;;;;13.23;3.63;;;20.60;96.20;;;;;;5027969;28;20033;-56
2022/06/11 09:43:04;;;;;;;12.63;3.80;;;20.40;96.20;;;;;;5015904;28;20048;-62
2022/06/11 09:45:38;;;;;;;16.33;3.35;;;20.40;96.40;;;;;;5023884;28;20049;-58
2022/06/11 09:48:37;;;;;;;14.40;3.67;;;20.40;95.70;;;;;;5026145;28;20120;-61
2022/06/11 09:51:07;;;;;;;11.18;3.65;;;20.60;96.40;;;;;;5016903;28;20042;-60
2022/06/11 09:54:21;;;;;;;17.30;4.32;;;20.60;96.40;;;;;;5017257;28;20049;-58
2022/06/11 09:57:12;;;;;;;15.48;4.22;;;20.80;95.30;;;;;;5002117;28;20084;-56
2022/06/11 09:59:58;;;;;;;10.32;2.80;;;20.60;95.20;;;;;;5006778;28;20386;-61
2022/06/11 10:02:55;;;;;;;9.07;3.00;;;20.70;94.80;;;;;;5020691;28;20050;-58
2022/06/11 10:05:28;;;;;;;16.65;3.90;;;20.90;95.40;;;;;;5017819;28;20034;-58
2022/06/11 10:08:14;;;;;;;13.25;3.40;;;21.30;94.60;;;;;;5016976;28;20065;-58
2022/06/11 10:10:45;;;;;;;11.63;3.08;;;21.40;93.70;;;;;;5022598;28;20515;-64
2022/06/11 10:13:25;;;;;;;10.45;3.17;;;21.40;92.90;;;;;;5016745;28;20047;-56
2022/06/11 10:15:53;;;;;;;12.02;3.60;;;21.50;93.20;;;;;;5025839;28;20446;-57
2022/06/11 10:18:28;;;;;;;11.93;2.90;;;21.50;93.20;;;;;;5023224;28;20038;-58
2022/06/11 10:21:09;;;;;;;13.02;3.13;;;21.50;92.80;;;;;;5006650;28;20092;-62
2022/06/11 10:23:56;;;;;;;11.18;2.70;;;21.60;93.30;;;;;;5018678;28;20073;-55
2022/06/11 10:26:36;;;;;;;13.27;4.07;;;21.50;92.60;;;;;;5005288;28;20045;-62
2022/06/11 10:29:40;;;;;;;14.02;3.13;;;21.30;92.60;;;;;;5021187;28;20500;-59
2022/06/11 10:32:08;;;;;;;11.40;3.10;;;21.30;94.20;;;;;;5016696;28;20046;-63
2022/06/11 10:34:39;;;;;;;12.60;3.45;;;21.40;93.60;;;;;;4998317;28;20521;-60
2022/06/11 10:37:10;;;;;;;10.35;2.83;;;21.20;91.60;;;;;;5005803;28;20053;-60
2022/06/11 10:39:47;;;;;;;13.68;3.40;;;21.30;92.70;;;;;;5022803;28;20511;-60
2022/06/11 10:42:31;;;;;;;11.57;2.85;;;21.50;92.20;;;;;;5022556;28;20057;-61
2022/06/11 10:44:58;;;;;;;13.75;3.72;;;21.70;92.00;;;;;;5026162;28;20565;-60
2022/06/11 10:47:35;;;;;;;13.27;2.90;;;21.60;87.80;;;;;;5001423;28;20217;-58
2022/06/11 10:50:11;;;;;;;15.10;3.45;;;21.70;89.60;;;;;;5020795;28;20068;-62
2022/06/11 10:52:55;;;;;;;12.63;2.75;;;21.50;90.20;;;;;;5011699;28;20041;-58
2022/06/11 10:55:47;;;;;;;8.93;3.00;;;21.50;89.20;;;;;;5013588;23;20526;-57
2022/06/11 10:58:15;;;;;;;11.68;3.08;;;21.30;88.70;;;;;;4938142;28;20498;-57
2022/06/11 11:00:50;;;;;;;11.85;3.10;;;21.20;90.10;;;;;;4947247;28;20117;-55
2022/06/11 11:03:47;;;;;;;14.40;2.88;;;21.60;90.80;;;;;;4947324;28;20043;-54
2022/06/11 11:06:28;;;;;;;8.70;2.75;;;21.60;89.30;;;;;;4938556;28;20101;-57
2022/06/11 11:08:59;;;;;;;14.45;3.30;;;21.80;89.50;;;;;;4958834;28;20035;-59
2022/06/11 11:11:35;;;;;;;13.73;2.88;;;22.00;90.40;;;;;;4947589;28;20122;-57
2022/06/11 11:14:27;;;;;;;10.82;3.05;;;22.30;90.20;;;;;;4949453;28;20051;-56
2022/06/11 11:16:59;;;;;;;8.95;3.10;;;22.40;87.20;;;;;;4926847;28;20054;-59
2022/06/11 11:19:28;;;;;;;11.13;2.70;;;22.60;86.90;;;;;;4963738;28;20047;-55
2022/06/11 11:21:56;;;;;;;11.00;2.97;;;22.40;81.80;;;;;;4943759;28;20038;-58
2022/06/11 11:24:29;;;;;;;9.75;2.65;;;21.80;80.30;;;;;;4941934;28;20046;-56
2022/06/11 11:27:04;;;;;;;10.93;2.80;;;22.00;86.90;;;;;;4942652;28;20361;-54
2022/06/11 11:29:33;;;;;;;9.50;2.15;;;22.20;85.70;;;;;;4945270;28;20047;-56
2022/06/11 11:32:28;;;;;;;10.23;3.10;;;22.50;84.90;;;;;;4948281;28;20050;-53
2022/06/11 11:34:56;;;;;;;10.57;2.28;;;22.80;85.80;;;;;;4950149;28;20620;-60
2022/06/11 11:37:23;;;;;;;6.30;2.20;;;22.70;78.70;;;;;;4947308;28;20134;-56
2022/06/11 11:39:50;;;;;;;6.95;2.20;;;22.80;82.70;;;;;;4947340;28;20282;-53
2022/06/11 11:42:42;;;;;;;9.45;2.90;;;22.80;78.60;;;;;;4927321;28;20086;-57
2022/06/11 11:45:25;;;;;;;9.02;2.53;;;22.40;79.70;;;;;;4940641;28;20557;-57
2022/06/11 11:48:00;;;;;;;8.82;2.45;;;22.50;80.00;;;;;;4936347;28;20045;-55
2022/06/11 11:50:31;;;;;;;7.45;2.22;;;22.60;81.60;;;;;;4937448;28;20510;-56
2022/06/11 11:53:11;;;;;;;10.18;2.55;;;22.90;83.30;;;;;;4918810;28;20043;-60
2022/06/11 11:55:41;;;;;;;8.88;2.80;;;22.40;80.90;;;;;;4925121;28;20480;-57
2022/06/11 11:58:17;;;;;;;12.93;3.22;;;21.80;81.90;;;;;;4927106;28;20046;-59
2022/06/11 12:01:00;;;;;;;11.93;3.55;;;21.90;87.50;;;;;;4962650;28;20131;-59
2022/06/11 12:03:34;;;;;;;10.23;2.97;;;22.10;88.00;;;;;;4937548;28;20101;-59
2022/06/11 12:06:01;;;;;;;9.38;3.30;;;22.00;87.90;;;;;;4930675;28;20338;-58
2022/06/11 12:08:36;;;;;;;12.00;3.42;;;22.00;90.20;;;;;;4940859;28;20204;-57
2022/06/11 12:11:04;;;;;;;15.50;3.72;;;22.10;89.80;;;;;;4965076;28;20053;-56
2022/06/11 12:13:42;;;;;;;18.27;3.75;;;21.90;88.30;;;;;;4945728;28;20264;-57
2022/06/11 12:16:17;;;;;;;15.27;3.50;;;22.20;91.30;;;;;;4942654;28;20094;-58
2022/06/11 12:18:49;;;;;;;13.40;3.78;;;22.20;90.80;;;;;;4954694;28;20051;-57
2022/06/11 12:21:23;;;;;;;10.23;3.25;;;22.20;91.10;;;;;;4938721;28;20061;-56
2022/06/11 12:24:03;;;;;;;11.93;3.50;;;22.30;91.10;;;;;;4939280;28;20730;-55
2022/06/11 12:26:34;;;;;;;12.05;2.70;;;22.10;90.80;;;;;;4936572;28;20102;-58
2022/06/11 12:29:21;;;;;;;15.57;3.05;;;22.20;89.60;;;;;;4944875;28;20410;-59
2022/06/11 12:31:47;;;;;;;14.27;3.13;;;22.00;90.30;;;;;;4942512;28;20066;-57
2022/06/11 12:34:16;;;;;;;12.60;3.92;;;21.90;90.50;;;;;;4950878;28;20487;-56
2022/06/11 12:36:55;;;;;;;11.77;3.50;;;21.70;90.90;;;;;;4945586;28;20101;-55
2022/06/11 12:39:44;;;;;;;11.52;3.95;;;21.60;91.00;;;;;;4930556;28;20277;-56
2022/06/11 12:42:20;;;;;;;13.82;3.22;;;21.90;91.20;;;;;;4944779;28;20047;-56
2022/06/11 12:45:17;;;;;;;11.27;3.95;;;21.90;90.40;;;;;;4946229;28;20160;-60
2022/06/11 12:48:10;;;;;;;11.30;3.50;;;22.10;90.60;;;;;;4939265;28;20061;-57
2022/06/11 12:50:48;;;;;;;8.98;3.05;;;22.20;90.30;;;;;;4963022;28;20051;-55
2022/06/11 12:53:51;;;;;;;16.00;3.92;;;22.30;90.40;;;;;;4943367;28;20410;-56
2022/06/11 12:56:36;;;;;;;17.38;4.07;;;21.80;89.50;;;;;;4965693;28;20516;-53
2022/06/11 12:59:12;;;;;;;15.18;3.60;;;21.80;91.50;;;;;;4946550;28;20053;-59
2022/06/11 13:01:53;;;;;;;11.65;3.67;;;22.30;90.90;;;;;;4942135;28;20059;-58
2022/06/11 13:04:21;;;;;;;15.38;4.53;;;22.50;90.20;;;;;;4942933;28;20144;-55
2022/06/11 13:07:09;;;;;;;13.68;3.67;;;22.80;88.30;;;;;;4946713;28;20042;-58
2022/06/11 13:09:58;;;;;;;13.45;3.38;;;22.70;88.00;;;;;;4940472;28;20101;-60